createdAt,value
2022-08-14T00:00:25.047Z,0.00
2022-08-14T00:01:25.050Z,0.00
2022-08-14T00:02:27.372Z,0.00
2022-08-14T00:03:29.149Z,0.00
2022-08-14T00:04:36.098Z,0.00
2022-08-14T00:05:26.003Z,0.00
2022-08-14T00:06:28.511Z,0.00
2022-08-14T00:07:24.949Z,0.00
2022-08-14T00:08:44.732Z,0.00
2022-08-14T00:09:24.908Z,0.00
2022-08-14T00:10:51.993Z,0.00
2022-08-14T00:11:24.880Z,0.00
2022-08-14T00:12:33.792Z,0.00
2022-08-14T00:13:25.882Z,0.00
2022-08-14T00:14:24.855Z,0.00
2022-08-14T00:15:24.832Z,0.00
2022-08-14T00:16:40.864Z,0.00
2022-08-14T00:17:24.801Z,0.00
2022-08-14T00:19:01.004Z,0.00
2022-08-14T00:19:24.775Z,0.00
2022-08-14T00:20:31.181Z,0.00
2022-08-14T00:21:28.215Z,0.00
2022-08-14T00:22:56.852Z,0.00
2022-08-14T00:23:24.723Z,0.00
2022-08-14T00:24:30.832Z,0.00
2022-08-14T00:25:25.711Z,0.00
2022-08-14T00:26:24.683Z,0.00
2022-08-14T00:27:24.663Z,0.00
2022-08-14T00:28:24.670Z,0.00
2022-08-14T00:29:25.267Z,0.00
2022-08-14T00:30:24.631Z,0.00
2022-08-14T00:31:35.149Z,0.00
2022-08-14T00:32:50.311Z,0.00
2022-08-14T00:33:39.332Z,0.00
2022-08-14T00:34:36.262Z,0.00
2022-08-14T00:35:25.926Z,0.00
2022-08-14T00:36:36.290Z,0.00
2022-08-14T00:37:24.532Z,0.00
2022-08-14T00:38:24.525Z,0.00
2022-08-14T00:39:24.582Z,0.00
2022-08-14T00:40:33.088Z,0.00
2022-08-14T00:41:24.480Z,0.00
2022-08-14T00:42:55.510Z,0.00
2022-08-14T00:43:24.447Z,0.00
2022-08-14T00:44:31.904Z,0.00
2022-08-14T00:45:24.430Z,0.00
2022-08-14T00:46:33.145Z,0.00
2022-08-14T00:47:25.429Z,0.00
2022-08-14T00:48:34.840Z,0.00
2022-08-14T00:49:24.408Z,0.00
2022-08-14T00:50:24.353Z,0.00
2022-08-14T00:51:24.338Z,0.00
2022-08-14T00:52:24.326Z,0.00
2022-08-14T00:53:24.315Z,0.00
2022-08-14T00:54:24.306Z,0.00
2022-08-14T00:55:24.288Z,0.00
2022-08-14T00:56:24.278Z,0.00
2022-08-14T00:57:24.261Z,0.00
2022-08-14T00:58:28.019Z,0.00
2022-08-14T00:59:24.621Z,0.00
2022-08-14T01:00:37.509Z,0.00
2022-08-14T01:01:24.219Z,0.00
2022-08-14T01:02:24.198Z,0.00
2022-08-14T01:03:24.188Z,0.00
2022-08-14T01:04:38.258Z,0.00
2022-08-14T01:05:24.153Z,0.00
2022-08-14T01:06:24.142Z,0.00
2022-08-14T01:07:27.307Z,0.00
2022-08-14T01:08:51.414Z,0.00
2022-08-14T01:09:24.101Z,0.00
2022-08-14T01:10:24.082Z,0.00
2022-08-14T01:11:24.067Z,0.00
2022-08-14T01:12:27.406Z,0.00
2022-08-14T01:13:24.045Z,0.00
2022-08-14T01:14:28.584Z,0.00
2022-08-14T01:15:48.153Z,0.00
2022-08-14T01:16:26.336Z,0.00
2022-08-14T01:17:23.990Z,0.00
2022-08-14T01:18:23.979Z,0.00
2022-08-14T01:19:23.968Z,0.00
2022-08-14T01:20:27.339Z,0.00
2022-08-14T01:21:23.937Z,0.00
2022-08-14T01:22:26.817Z,0.00
2022-08-14T01:23:23.915Z,0.00
2022-08-14T01:24:30.588Z,0.00
2022-08-14T01:25:23.879Z,0.00
2022-08-14T01:26:35.232Z,0.00
2022-08-14T01:27:25.043Z,0.00
2022-08-14T01:28:47.067Z,0.00
2022-08-14T01:29:51.968Z,0.00
2022-08-14T01:30:23.824Z,0.00
2022-08-14T01:31:23.804Z,0.00
2022-08-14T01:32:23.795Z,0.00
2022-08-14T01:33:23.774Z,0.00
2022-08-14T01:35:21.145Z,0.00
2022-08-14T01:36:03.369Z,0.00
2022-08-14T01:36:23.762Z,0.00
2022-08-14T01:37:23.720Z,0.00
2022-08-14T01:38:23.711Z,0.00
2022-08-14T01:39:23.737Z,0.00
2022-08-14T01:40:25.580Z,0.00
2022-08-14T01:41:30.103Z,0.00
2022-08-14T01:42:31.863Z,0.00
2022-08-14T01:43:26.601Z,0.00
2022-08-14T01:44:31.940Z,0.00
2022-08-14T01:45:25.436Z,0.00
2022-08-14T01:46:24.608Z,0.00
2022-08-14T01:47:23.583Z,0.00
2022-08-14T01:48:23.575Z,0.00
2022-08-14T01:49:23.557Z,0.00
2022-08-14T01:50:26.634Z,0.00
2022-08-14T01:51:23.526Z,0.00
2022-08-14T01:52:57.622Z,0.00
2022-08-14T01:53:23.504Z,0.00
2022-08-14T01:54:23.494Z,0.00
2022-08-14T01:55:23.476Z,0.00
2022-08-14T01:56:23.470Z,0.00
2022-08-14T01:57:23.445Z,0.00
2022-08-14T01:58:28.917Z,0.00
2022-08-14T01:59:23.421Z,0.00
2022-08-14T02:00:23.417Z,0.00
2022-08-14T02:01:23.442Z,0.00
2022-08-14T02:02:23.386Z,0.00
2022-08-14T02:03:23.374Z,0.00
2022-08-14T02:04:56.207Z,0.00
2022-08-14T02:05:23.336Z,0.00
2022-08-14T02:06:33.379Z,0.00
2022-08-14T02:07:34.478Z,0.00
2022-08-14T02:08:35.660Z,0.00
2022-08-14T02:09:23.287Z,0.00
2022-08-14T02:10:26.312Z,0.00
2022-08-14T02:11:23.266Z,0.00
2022-08-14T02:12:26.298Z,0.00
2022-08-14T02:13:23.230Z,0.00
2022-08-14T02:14:31.013Z,0.00
2022-08-14T02:15:23.199Z,0.00
2022-08-14T02:16:23.191Z,0.00
2022-08-14T02:17:23.178Z,0.00
2022-08-14T02:18:23.162Z,0.00
2022-08-14T02:19:23.150Z,0.00
2022-08-14T02:20:23.862Z,0.00
2022-08-14T02:21:23.728Z,0.00
2022-08-14T02:22:32.446Z,0.00
2022-08-14T02:23:28.889Z,0.00
2022-08-14T02:24:40.405Z,0.00
2022-08-14T02:25:23.079Z,0.00
2022-08-14T02:26:29.272Z,0.00
2022-08-14T02:28:24.521Z,0.00
2022-08-14T02:28:58.134Z,0.00
2022-08-14T02:29:23.019Z,0.00
2022-08-14T02:30:23.002Z,0.00
2022-08-14T02:31:28.430Z,0.00
2022-08-14T02:32:30.623Z,0.00
2022-08-14T02:33:22.960Z,0.00
2022-08-14T02:34:27.382Z,0.00
2022-08-14T02:35:22.930Z,0.00
2022-08-14T02:37:05.467Z,0.00
2022-08-14T02:37:22.913Z,0.00
2022-08-14T02:38:30.217Z,0.00
2022-08-14T02:39:22.906Z,0.00
2022-08-14T02:40:32.190Z,0.00
2022-08-14T02:41:26.359Z,0.00
2022-08-14T02:42:23.415Z,0.00
2022-08-14T02:43:22.916Z,0.00
2022-08-14T02:44:29.568Z,0.00
2022-08-14T02:45:22.801Z,0.00
2022-08-14T02:46:26.903Z,0.00
2022-08-14T02:47:22.767Z,0.00
2022-08-14T02:49:04.191Z,0.00
2022-08-14T02:49:25.306Z,0.00
2022-08-14T02:50:27.015Z,0.00
2022-08-14T02:51:22.709Z,0.00
2022-08-14T02:52:56.000Z,0.00
2022-08-14T02:53:22.691Z,0.00
2022-08-14T02:54:22.672Z,0.00
2022-08-14T02:55:22.657Z,0.00
2022-08-14T02:56:30.496Z,0.00
2022-08-14T02:57:39.284Z,0.00
2022-08-14T02:58:30.666Z,0.00
2022-08-14T02:59:22.599Z,0.00
2022-08-14T03:00:22.589Z,0.00
2022-08-14T03:01:22.623Z,0.00
2022-08-14T03:02:33.346Z,0.00
2022-08-14T03:03:22.551Z,0.00
2022-08-14T03:04:22.534Z,0.00
2022-08-14T03:05:22.522Z,0.00
2022-08-14T03:06:35.195Z,0.00
2022-08-14T03:07:22.502Z,0.00
2022-08-14T03:08:22.496Z,0.00
2022-08-14T03:09:22.461Z,0.00
2022-08-14T03:10:27.000Z,0.00
2022-08-14T03:11:22.437Z,0.00
2022-08-14T03:12:30.939Z,0.00
2022-08-14T03:13:22.418Z,0.00
2022-08-14T03:14:22.398Z,0.00
2022-08-14T03:15:22.389Z,0.00
2022-08-14T03:16:26.795Z,0.00
2022-08-14T03:17:22.462Z,0.00
2022-08-14T03:18:22.336Z,0.00
2022-08-14T03:19:22.337Z,0.00
2022-08-14T03:20:22.499Z,0.00
2022-08-14T03:21:22.302Z,0.00
2022-08-14T03:22:22.291Z,0.00
2022-08-14T03:23:22.278Z,0.00
2022-08-14T03:24:23.334Z,0.00
2022-08-14T03:25:22.251Z,0.00
2022-08-14T03:26:29.615Z,0.00
2022-08-14T03:27:23.239Z,0.00
2022-08-14T03:28:32.857Z,0.00
2022-08-14T03:29:22.193Z,0.00
2022-08-14T03:30:23.362Z,0.00
2022-08-14T03:31:22.166Z,0.00
2022-08-14T03:32:27.353Z,0.00
2022-08-14T03:33:22.133Z,0.00
2022-08-14T03:34:24.958Z,0.00
2022-08-14T03:35:23.145Z,0.00
2022-08-14T03:37:51.458Z,0.00
2022-08-14T03:37:52.099Z,0.00
2022-08-14T03:39:12.192Z,0.00
2022-08-14T03:39:24.172Z,0.00
2022-08-14T03:40:22.038Z,0.00
2022-08-14T03:41:23.257Z,0.00
2022-08-14T03:42:22.010Z,0.00
2022-08-14T03:43:22.001Z,0.00
2022-08-14T03:45:26.067Z,0.00
2022-08-14T03:45:34.220Z,0.00
2022-08-14T03:46:38.936Z,4.00
2022-08-14T03:47:21.952Z,4.00
2022-08-14T03:48:30.418Z,0.00
2022-08-14T03:49:24.198Z,4.00
2022-08-14T03:50:27.799Z,4.00
2022-08-14T03:51:21.891Z,4.00
2022-08-14T03:52:38.871Z,4.00
2022-08-14T03:53:21.872Z,8.00
2022-08-14T03:54:21.849Z,4.00
2022-08-14T03:55:21.838Z,8.00
2022-08-14T03:56:21.822Z,8.00
2022-08-14T03:57:22.877Z,12.00
2022-08-14T03:58:23.749Z,12.00
2022-08-14T03:59:21.792Z,16.00
2022-08-14T04:00:43.287Z,16.00
2022-08-14T04:01:21.807Z,20.00
2022-08-14T04:02:32.600Z,24.00
2022-08-14T04:03:24.268Z,28.00
2022-08-14T04:04:21.715Z,28.00
2022-08-14T04:05:21.704Z,36.00
2022-08-14T04:06:21.688Z,40.00
2022-08-14T04:07:21.672Z,48.00
2022-08-14T04:08:29.243Z,56.00
2022-08-14T04:09:21.653Z,64.00
2022-08-14T04:10:31.475Z,72.00
2022-08-14T04:11:21.619Z,84.00
2022-08-14T04:12:26.556Z,96.00
2022-08-14T04:13:23.899Z,112.00
2022-08-14T04:14:21.585Z,132.00
2022-08-14T04:15:23.592Z,148.00
2022-08-14T04:16:21.555Z,164.00
2022-08-14T04:17:21.541Z,180.00
2022-08-14T04:18:21.529Z,204.00
2022-08-14T04:19:21.543Z,220.00
2022-08-14T04:20:25.740Z,244.00
2022-08-14T04:21:21.495Z,268.00
2022-08-14T04:22:21.985Z,292.00
2022-08-14T04:23:23.640Z,316.00
2022-08-14T04:24:21.445Z,344.00
2022-08-14T04:25:21.436Z,372.00
2022-08-14T04:26:41.967Z,404.00
2022-08-14T04:27:21.409Z,436.00
2022-08-14T04:29:01.970Z,472.00
2022-08-14T04:29:22.405Z,512.00
2022-08-14T04:30:29.540Z,544.00
2022-08-14T04:31:24.896Z,576.00
2022-08-14T04:33:00.160Z,604.00
2022-08-14T04:33:21.774Z,640.00
2022-08-14T04:34:27.161Z,664.00
2022-08-14T04:35:23.704Z,696.00
2022-08-14T04:36:21.290Z,728.00
2022-08-14T04:37:22.328Z,756.00
2022-08-14T04:38:36.795Z,780.00
2022-08-14T04:39:21.272Z,812.00
2022-08-14T04:40:21.236Z,844.00
2022-08-14T04:41:21.222Z,880.00
2022-08-14T04:42:21.211Z,908.00
2022-08-14T04:43:21.192Z,940.00
2022-08-14T04:44:26.589Z,972.00
2022-08-14T04:45:21.162Z,1000.00
2022-08-14T04:46:55.221Z,1036.00
2022-08-14T04:47:22.158Z,1064.00
2022-08-14T04:48:39.243Z,1100.00
2022-08-14T04:49:21.111Z,1136.00
2022-08-14T04:50:31.395Z,1172.00
2022-08-14T04:51:21.087Z,1212.00
2022-08-14T04:52:23.414Z,1256.00
2022-08-14T04:53:23.272Z,1296.00
2022-08-14T04:54:21.044Z,1340.00
2022-08-14T04:55:21.027Z,1372.00
2022-08-14T04:56:30.653Z,1408.00
2022-08-14T04:57:21.005Z,1444.00
2022-08-14T04:58:21.498Z,1480.00
2022-08-14T04:59:20.979Z,1524.00
2022-08-14T05:00:20.970Z,1568.00
2022-08-14T05:01:20.952Z,1608.00
2022-08-14T05:02:20.998Z,1648.00
2022-08-14T05:03:20.920Z,1680.00
2022-08-14T05:04:21.154Z,1708.00
2022-08-14T05:05:20.897Z,1744.00
2022-08-14T05:06:38.558Z,1780.00
2022-08-14T05:07:20.924Z,1816.00
2022-08-14T05:08:32.251Z,1848.00
2022-08-14T05:09:21.605Z,1872.00
2022-08-14T05:10:21.951Z,1888.00
2022-08-14T05:11:20.829Z,1888.00
2022-08-14T05:13:10.433Z,1892.00
2022-08-14T05:13:24.475Z,1896.00
2022-08-14T05:14:45.721Z,1920.00
2022-08-14T05:15:20.760Z,1952.00
2022-08-14T05:16:20.751Z,2016.00
2022-08-14T05:17:20.745Z,2068.00
2022-08-14T05:19:17.128Z,2124.00
2022-08-14T05:19:26.768Z,2140.00
2022-08-14T05:21:55.228Z,2140.00
2022-08-14T05:22:00.029Z,2124.00
2022-08-14T05:22:21.694Z,2108.00
2022-08-14T05:23:20.653Z,2092.00
2022-08-14T05:24:20.643Z,2096.00
2022-08-14T05:25:20.632Z,2112.00
2022-08-14T05:26:20.621Z,2168.00
2022-08-14T05:27:22.776Z,2200.00
2022-08-14T05:28:20.687Z,2236.00
2022-08-14T05:29:20.576Z,2268.00
2022-08-14T05:30:20.564Z,2268.00
2022-08-14T05:31:21.193Z,2272.00
2022-08-14T05:32:20.536Z,2276.00
2022-08-14T05:33:20.522Z,2284.00
2022-08-14T05:34:20.512Z,2280.00
2022-08-14T05:35:20.498Z,2300.00
2022-08-14T05:36:20.478Z,2340.00
2022-08-14T05:37:20.465Z,2416.00
2022-08-14T05:38:22.222Z,2484.00
2022-08-14T05:39:21.478Z,2668.00
2022-08-14T05:40:20.430Z,3012.00
2022-08-14T05:41:20.413Z,3024.00
2022-08-14T05:42:22.366Z,2924.00
2022-08-14T05:43:20.385Z,3084.00
2022-08-14T05:44:20.376Z,3368.00
2022-08-14T05:45:20.353Z,3440.00
2022-08-14T05:46:20.843Z,3540.00
2022-08-14T05:47:20.327Z,3588.00
2022-08-14T05:48:32.778Z,3648.00
2022-08-14T05:49:20.304Z,4016.00
2022-08-14T05:50:20.298Z,4524.00
2022-08-14T05:51:20.275Z,5084.00
2022-08-14T05:52:26.519Z,6164.00
2022-08-14T05:53:20.242Z,7148.00
2022-08-14T05:54:26.922Z,7156.00
2022-08-14T05:55:21.906Z,7464.00
2022-08-14T05:56:20.205Z,7776.00
2022-08-14T05:57:20.194Z,8072.00
2022-08-14T05:58:20.197Z,8448.00
2022-08-14T05:59:20.167Z,8360.00
2022-08-14T06:00:29.053Z,8644.00
2022-08-14T06:01:20.197Z,8540.00
2022-08-14T06:02:21.771Z,8448.00
2022-08-14T06:03:20.109Z,7536.00
2022-08-14T06:04:20.102Z,6348.00
2022-08-14T06:05:23.385Z,5440.00
2022-08-14T06:06:20.078Z,5504.00
2022-08-14T06:07:20.060Z,5268.00
2022-08-14T06:08:30.982Z,5380.00
2022-08-14T06:09:20.029Z,5552.00
2022-08-14T06:10:20.020Z,6012.00
2022-08-14T06:11:20.365Z,7920.00
2022-08-14T06:12:31.348Z,9836.00
2022-08-14T06:13:19.984Z,10512.00
2022-08-14T06:14:21.552Z,11316.00
2022-08-14T06:15:20.578Z,11812.00
2022-08-14T06:16:19.945Z,12100.00
2022-08-14T06:17:26.163Z,11812.00
2022-08-14T06:18:19.911Z,11844.00
2022-08-14T06:19:19.897Z,11600.00
2022-08-14T06:20:22.091Z,11304.00
2022-08-14T06:21:19.877Z,10788.00
2022-08-14T06:22:19.860Z,10800.00
2022-08-14T06:23:19.843Z,11324.00
2022-08-14T06:24:19.835Z,11980.00
2022-08-14T06:25:19.820Z,12664.00
2022-08-14T06:26:20.720Z,13216.00
2022-08-14T06:27:19.790Z,13408.00
2022-08-14T06:28:27.326Z,13408.00
2022-08-14T06:29:20.783Z,13696.00
2022-08-14T06:30:19.749Z,13888.00
2022-08-14T06:31:19.733Z,14112.00
2022-08-14T06:32:36.446Z,13952.00
2022-08-14T06:33:19.710Z,12800.00
2022-08-14T06:35:02.813Z,11912.00
2022-08-14T06:35:20.708Z,11140.00
2022-08-14T06:36:19.671Z,8460.00
2022-08-14T06:37:19.653Z,11040.00
2022-08-14T06:38:19.643Z,13660.00
2022-08-14T06:39:36.325Z,15616.00
2022-08-14T06:40:26.999Z,14592.00
2022-08-14T06:41:20.955Z,9920.00
2022-08-14T06:42:33.080Z,6936.00
2022-08-14T06:43:19.753Z,6208.00
2022-08-14T06:44:19.564Z,5836.00
2022-08-14T06:45:19.555Z,5688.00
2022-08-14T06:46:32.406Z,5500.00
2022-08-14T06:47:19.524Z,5348.00
2022-08-14T06:48:19.514Z,5188.00
2022-08-14T06:49:19.497Z,4988.00
2022-08-14T06:50:19.493Z,4980.00
2022-08-14T06:51:19.469Z,5132.00
2022-08-14T06:52:19.459Z,5120.00
2022-08-14T06:53:19.436Z,5700.00
2022-08-14T06:54:19.434Z,7076.00
2022-08-14T06:55:24.032Z,6844.00
2022-08-14T06:56:19.405Z,6792.00
2022-08-14T06:57:19.384Z,6672.00
2022-08-14T06:58:25.062Z,7096.00
2022-08-14T06:59:19.690Z,6520.00
2022-08-14T07:00:26.777Z,5312.00
2022-08-14T07:01:26.835Z,5692.00
2022-08-14T07:02:20.352Z,9792.00
2022-08-14T07:03:21.711Z,14848.00
2022-08-14T07:04:23.730Z,23936.00
2022-08-14T07:05:23.176Z,28448.00
2022-08-14T07:06:21.494Z,27328.00
2022-08-14T07:07:19.258Z,20576.00
2022-08-14T07:08:19.241Z,13236.00
2022-08-14T07:09:23.223Z,8224.00
2022-08-14T07:10:19.222Z,6688.00
2022-08-14T07:11:19.202Z,6048.00
2022-08-14T07:12:54.223Z,6124.00
2022-08-14T07:13:19.175Z,5932.00
2022-08-14T07:14:19.166Z,5548.00
2022-08-14T07:15:19.146Z,5228.00
2022-08-14T07:16:19.171Z,5064.00
2022-08-14T07:17:19.124Z,5116.00
2022-08-14T07:18:19.117Z,5160.00
2022-08-14T07:19:20.752Z,5256.00
2022-08-14T07:20:19.092Z,5320.00
2022-08-14T07:21:19.068Z,5384.00
2022-08-14T07:22:20.619Z,5416.00
2022-08-14T07:23:20.637Z,5360.00
2022-08-14T07:24:22.093Z,5400.00
2022-08-14T07:25:19.017Z,5428.00
2022-08-14T07:26:19.007Z,5384.00
2022-08-14T07:27:18.990Z,5264.00
2022-08-14T07:28:20.465Z,5052.00
2022-08-14T07:29:22.800Z,5616.00
2022-08-14T07:30:34.183Z,5716.00
2022-08-14T07:31:18.938Z,5664.00
2022-08-14T07:32:22.051Z,5772.00
2022-08-14T07:33:20.875Z,6104.00
2022-08-14T07:34:36.078Z,6376.00
2022-08-14T07:35:18.880Z,8392.00
2022-08-14T07:36:27.611Z,16832.00
2022-08-14T07:37:18.857Z,29600.00
2022-08-14T07:38:18.850Z,34880.00
2022-08-14T07:39:18.885Z,37856.00
2022-08-14T07:40:22.101Z,40064.00
2022-08-14T07:41:18.799Z,40928.00
2022-08-14T07:42:19.941Z,40512.00
2022-08-14T07:43:18.773Z,42048.00
2022-08-14T07:44:31.986Z,41280.00
2022-08-14T07:45:18.747Z,43040.00
2022-08-14T07:46:21.012Z,44576.00
2022-08-14T07:47:18.728Z,45632.00
2022-08-14T07:48:19.465Z,44736.00
2022-08-14T07:49:19.727Z,42624.00
2022-08-14T07:50:20.086Z,43264.00
2022-08-14T07:51:18.674Z,41888.00
2022-08-14T07:52:21.947Z,44992.00
2022-08-14T07:53:18.651Z,43424.00
2022-08-14T07:54:23.296Z,41440.00
2022-08-14T07:55:21.237Z,40704.00
2022-08-14T07:56:44.482Z,39072.00
2022-08-14T07:57:24.772Z,32416.00
2022-08-14T07:58:34.214Z,19712.00
2022-08-14T07:59:19.587Z,10356.00
2022-08-14T08:00:30.956Z,9124.00
2022-08-14T08:01:18.541Z,8820.00
2022-08-14T08:02:20.630Z,8732.00
2022-08-14T08:03:18.588Z,8772.00
2022-08-14T08:04:23.967Z,8928.00
2022-08-14T08:05:18.494Z,9168.00
2022-08-14T08:06:18.484Z,9444.00
2022-08-14T08:07:18.467Z,9732.00
2022-08-14T08:08:26.973Z,9772.00
2022-08-14T08:09:19.460Z,9780.00
2022-08-14T08:10:46.161Z,12264.00
2022-08-14T08:11:18.412Z,19424.00
2022-08-14T08:12:18.463Z,31808.00
2022-08-14T08:13:18.385Z,42496.00
2022-08-14T08:14:18.382Z,48448.00
2022-08-14T08:15:18.369Z,50080.00
2022-08-14T08:16:18.355Z,51168.00
2022-08-14T08:17:18.334Z,51584.00
2022-08-14T08:18:27.644Z,50304.00
2022-08-14T08:19:18.310Z,52352.00
2022-08-14T08:20:20.188Z,52256.00
2022-08-14T08:21:18.285Z,51840.00
2022-08-14T08:22:18.275Z,52256.00
2022-08-14T08:23:20.640Z,53408.00
2022-08-14T08:24:19.854Z,55648.00
2022-08-14T08:25:18.447Z,56096.00
2022-08-14T08:26:18.223Z,58752.00
2022-08-14T08:27:18.211Z,58016.00
2022-08-14T08:28:21.919Z,56928.00
2022-08-14T08:29:19.209Z,55328.00
2022-08-14T08:30:18.234Z,55488.00
2022-08-14T08:31:18.168Z,53920.00
2022-08-14T08:32:18.156Z,56896.00
2022-08-14T08:33:18.507Z,60352.00
2022-08-14T08:34:18.420Z,60928.00
2022-08-14T08:35:18.116Z,59040.00
2022-08-14T08:36:18.538Z,58304.00
2022-08-14T08:37:18.091Z,59168.00
2022-08-14T08:39:18.664Z,60096.00
2022-08-14T08:39:22.539Z,61184.00
2022-08-14T08:40:20.590Z,61504.00
2022-08-14T08:41:18.054Z,62336.00
2022-08-14T08:42:21.502Z,63936.00
2022-08-14T08:43:18.031Z,65280.00
2022-08-14T08:44:32.222Z,67520.00
2022-08-14T08:45:18.038Z,66208.00
2022-08-14T08:46:21.137Z,65696.00
2022-08-14T08:47:18.012Z,64832.00
2022-08-14T08:48:20.863Z,64192.00
2022-08-14T08:49:17.958Z,61952.00
2022-08-14T08:50:31.120Z,61536.00
2022-08-14T08:51:17.936Z,61824.00
2022-08-14T08:52:25.054Z,63488.00
2022-08-14T08:53:17.914Z,64288.00
2022-08-14T08:54:18.375Z,63264.00
2022-08-14T08:55:17.889Z,59840.00
2022-08-14T08:56:30.331Z,60032.00
2022-08-14T08:57:21.508Z,59296.00
2022-08-14T08:58:20.060Z,60928.00
2022-08-14T08:59:17.835Z,58624.00
2022-08-14T09:00:25.711Z,60512.00
2022-08-14T09:01:17.882Z,63232.00
2022-08-14T09:02:17.805Z,64832.00
2022-08-14T09:03:17.794Z,68096.00
2022-08-14T09:04:17.779Z,66304.00
2022-08-14T09:05:17.772Z,67424.00
2022-08-14T09:07:01.352Z,65376.00
2022-08-14T09:07:17.745Z,57536.00
2022-08-14T09:08:30.227Z,54048.00
2022-08-14T09:09:17.741Z,53888.00
2022-08-14T09:10:22.169Z,55264.00
2022-08-14T09:11:19.605Z,58176.00
2022-08-14T09:12:17.688Z,57664.00
2022-08-14T09:13:17.709Z,49184.00
2022-08-14T09:14:17.664Z,62080.00
2022-08-14T09:15:17.667Z,54752.00
2022-08-14T09:16:18.815Z,55872.00
2022-08-14T09:17:17.637Z,50976.00
2022-08-14T09:18:18.511Z,57856.00
2022-08-14T09:19:17.614Z,65696.00
2022-08-14T09:20:29.401Z,64224.00
2022-08-14T09:21:17.589Z,67552.00
2022-08-14T09:22:35.936Z,65824.00
2022-08-14T09:23:17.571Z,63744.00
2022-08-14T09:24:29.353Z,65792.00
2022-08-14T09:25:19.513Z,65152.00
2022-08-14T09:26:21.371Z,65792.00
2022-08-14T09:27:22.696Z,70496.00
2022-08-14T09:28:17.512Z,66048.00
2022-08-14T09:29:17.518Z,67040.00
2022-08-14T09:30:31.655Z,67360.00
2022-08-14T09:31:18.142Z,67424.00
2022-08-14T09:32:58.966Z,69472.00
2022-08-14T09:33:22.587Z,72576.00
2022-08-14T09:34:26.842Z,70048.00
2022-08-14T09:35:17.436Z,72960.00
2022-08-14T09:36:18.484Z,71072.00
2022-08-14T09:37:17.413Z,72064.00
2022-08-14T09:38:25.763Z,72384.00
2022-08-14T09:39:22.862Z,72832.00
2022-08-14T09:40:21.111Z,71328.00
2022-08-14T09:41:17.368Z,71488.00
2022-08-14T09:42:31.839Z,73408.00
2022-08-14T09:43:20.035Z,76544.00
2022-08-14T09:44:21.011Z,76192.00
2022-08-14T09:45:17.332Z,78592.00
2022-08-14T09:46:21.037Z,76736.00
2022-08-14T09:47:17.315Z,75040.00
2022-08-14T09:48:17.298Z,74400.00
2022-08-14T09:49:17.330Z,74400.00
2022-08-14T09:50:17.409Z,74656.00
2022-08-14T09:51:17.442Z,67168.00
2022-08-14T09:52:32.879Z,67520.00
2022-08-14T09:53:18.344Z,67808.00
2022-08-14T09:54:22.315Z,63456.00
2022-08-14T09:55:18.257Z,52320.00
2022-08-14T09:56:17.234Z,52960.00
2022-08-14T09:57:18.224Z,43776.00
2022-08-14T09:58:19.974Z,42912.00
2022-08-14T09:59:17.309Z,46400.00
2022-08-14T10:00:28.635Z,52576.00
2022-08-14T10:01:18.232Z,28640.00
2022-08-14T10:02:17.210Z,19872.00
2022-08-14T10:03:17.234Z,37152.00
2022-08-14T10:04:33.045Z,59776.00
2022-08-14T10:05:17.111Z,62304.00
2022-08-14T10:06:17.104Z,56544.00
2022-08-14T10:07:17.094Z,40448.00
2022-08-14T10:08:17.227Z,19904.00
2022-08-14T10:09:18.098Z,17376.00
2022-08-14T10:10:23.672Z,32352.00
2022-08-14T10:11:18.084Z,58752.00
2022-08-14T10:12:18.921Z,60800.00
2022-08-14T10:13:17.033Z,67584.00
2022-08-14T10:14:21.144Z,69920.00
2022-08-14T10:15:17.009Z,65920.00
2022-08-14T10:16:25.691Z,72064.00
2022-08-14T10:17:16.994Z,72672.00
2022-08-14T10:18:18.481Z,65376.00
2022-08-14T10:19:16.974Z,39808.00
2022-08-14T10:20:40.726Z,16128.00
2022-08-14T10:21:16.944Z,12296.00
2022-08-14T10:23:12.841Z,10964.00
2022-08-14T10:23:18.154Z,10416.00
2022-08-14T10:24:17.661Z,10148.00
2022-08-14T10:25:16.905Z,10032.00
2022-08-14T10:26:22.601Z,10140.00
2022-08-14T10:27:16.885Z,10460.00
2022-08-14T10:29:03.692Z,11060.00
2022-08-14T10:29:23.664Z,12212.00
2022-08-14T10:30:22.683Z,14816.00
2022-08-14T10:31:17.871Z,26464.00
2022-08-14T10:32:18.166Z,56864.00
2022-08-14T10:33:17.853Z,75904.00
2022-08-14T10:34:16.817Z,70432.00
2022-08-14T10:35:16.820Z,70304.00
2022-08-14T10:36:22.249Z,81696.00
2022-08-14T10:37:16.793Z,81696.00
2022-08-14T10:38:16.772Z,78240.00
2022-08-14T10:39:16.970Z,83200.00
2022-08-14T10:40:37.385Z,85632.00
2022-08-14T10:41:16.777Z,85120.00
2022-08-14T10:42:20.881Z,84416.00
2022-08-14T10:43:16.729Z,85344.00
2022-08-14T10:44:21.196Z,86240.00
2022-08-14T10:45:16.702Z,79808.00
2022-08-14T10:47:35.893Z,80448.00
2022-08-14T10:47:39.643Z,78016.00
2022-08-14T10:48:24.568Z,68704.00
2022-08-14T10:49:17.682Z,71712.00
2022-08-14T10:50:16.653Z,72864.00
2022-08-14T10:51:16.633Z,75712.00
2022-08-14T10:52:16.626Z,77952.00
2022-08-14T10:53:16.620Z,76192.00
2022-08-14T10:54:36.299Z,77056.00
2022-08-14T10:55:17.616Z,77440.00
2022-08-14T10:56:21.994Z,74528.00
2022-08-14T10:57:17.600Z,77792.00
2022-08-14T10:58:17.215Z,79616.00
2022-08-14T10:59:16.557Z,78592.00
2022-08-14T11:00:20.630Z,83648.00
2022-08-14T11:02:54.526Z,84992.00
2022-08-14T11:03:56.082Z,89056.00
2022-08-14T11:04:44.995Z,83552.00
2022-08-14T11:05:44.954Z,85856.00
2022-08-14T11:07:43.899Z,85184.00
2022-08-14T11:08:45.733Z,83584.00
2022-08-14T11:09:43.880Z,89856.00
2022-08-14T11:10:43.874Z,88704.00
2022-08-14T11:11:43.867Z,86880.00
2022-08-14T11:12:43.981Z,90112.00
2022-08-14T11:13:43.845Z,92224.00
2022-08-14T11:14:43.834Z,89216.00
2022-08-14T11:15:43.824Z,87424.00
2022-08-14T11:16:53.215Z,83424.00
2022-08-14T11:17:45.920Z,82848.00
2022-08-14T11:18:43.801Z,82080.00
2022-08-14T11:19:43.784Z,80544.00
2022-08-14T11:20:44.792Z,80448.00
2022-08-14T11:21:45.848Z,80192.00
2022-08-14T11:23:03.585Z,81792.00
2022-08-14T11:23:44.770Z,80640.00
2022-08-14T11:24:50.739Z,79040.00
2022-08-14T11:25:53.356Z,76544.00
2022-08-14T11:26:43.712Z,74464.00
2022-08-14T11:27:43.706Z,79168.00
2022-08-14T11:28:46.988Z,79648.00
2022-08-14T11:29:43.680Z,78016.00
2022-08-14T11:30:50.161Z,84352.00
2022-08-14T11:31:43.668Z,85536.00
2022-08-14T11:32:43.828Z,78688.00
2022-08-14T11:33:43.645Z,79456.00
2022-08-14T11:34:43.861Z,82752.00
2022-08-14T11:35:44.185Z,85504.00
2022-08-14T11:37:04.466Z,74272.00
2022-08-14T11:37:43.611Z,76832.00
2022-08-14T11:38:44.919Z,86784.00
2022-08-14T11:39:45.396Z,74944.00
2022-08-14T11:40:43.571Z,79456.00
2022-08-14T11:41:46.701Z,88224.00
2022-08-14T11:43:06.228Z,73600.00
2022-08-14T11:43:46.869Z,80416.00
2022-08-14T11:44:45.508Z,84480.00
2022-08-14T11:45:43.531Z,68704.00
2022-08-14T11:46:43.511Z,61056.00
2022-08-14T11:48:10.688Z,61536.00
2022-08-14T11:48:59.598Z,43744.00
2022-08-14T11:49:43.482Z,21408.00
2022-08-14T11:50:43.528Z,14656.00
2022-08-14T11:51:52.890Z,12508.00
2022-08-14T11:52:43.456Z,11440.00
2022-08-14T11:53:43.451Z,10732.00
2022-08-14T11:54:43.432Z,10180.00
2022-08-14T11:55:43.425Z,9780.00
2022-08-14T11:56:43.538Z,9540.00
2022-08-14T11:57:43.403Z,9368.00
2022-08-14T11:58:43.401Z,9284.00
2022-08-14T11:59:44.105Z,9148.00
2022-08-14T12:00:46.265Z,9068.00
2022-08-14T12:01:43.361Z,9028.00
2022-08-14T12:03:02.882Z,9048.00
2022-08-14T12:03:51.162Z,9048.00
2022-08-14T12:04:43.389Z,9104.00
2022-08-14T12:05:43.323Z,9208.00
2022-08-14T12:06:43.318Z,9308.00
2022-08-14T12:07:48.309Z,9316.00
2022-08-14T12:08:43.306Z,9360.00
2022-08-14T12:09:43.375Z,9488.00
2022-08-14T12:10:43.607Z,9564.00
2022-08-14T12:11:46.878Z,9720.00
2022-08-14T12:12:43.261Z,9908.00
2022-08-14T12:13:44.288Z,10220.00
2022-08-14T12:14:45.750Z,10284.00
2022-08-14T12:15:44.560Z,10036.00
2022-08-14T12:16:43.219Z,9532.00
2022-08-14T12:17:47.612Z,9160.00
2022-08-14T12:18:43.199Z,8912.00
2022-08-14T12:19:43.188Z,8788.00
2022-08-14T12:20:45.597Z,8772.00
2022-08-14T12:21:46.563Z,8800.00
2022-08-14T12:22:43.396Z,9192.00